createdAt,value
2019-01-21T00:00:34.601Z,100380.41
2019-01-21T00:03:14.101Z,100382.55
2019-01-21T00:05:41.154Z,100386.38
2019-01-21T00:08:14.305Z,100378.25
2019-01-21T00:10:47.580Z,100381.75
2019-01-21T00:13:21.153Z,100382.13
2019-01-21T00:15:53.887Z,100379.55
2019-01-21T00:18:33.304Z,100382.52
2019-01-21T00:21:06.082Z,100373.56
2019-01-21T00:23:41.710Z,100376.59
2019-01-21T00:26:13.261Z,100376.59
2019-01-21T00:28:46.587Z,100385.85
2019-01-21T00:31:19.234Z,100388.43
2019-01-21T00:33:52.809Z,100387.57
2019-01-21T00:36:25.946Z,100393.98
2019-01-21T00:38:58.788Z,100400.34
2019-01-21T00:41:32.656Z,100405.86
2019-01-21T00:44:05.942Z,100405.41
2019-01-21T00:46:38.566Z,100407.89
2019-01-21T00:49:11.877Z,100410.08
2019-01-21T00:51:44.602Z,100409.72
2019-01-21T00:54:18.239Z,100408.39
2019-01-21T00:56:51.373Z,100407.11
2019-01-21T00:59:24.992Z,100410.94
2019-01-21T01:01:56.782Z,100414.38
2019-01-21T01:04:30.025Z,100405.00
2019-01-21T01:07:02.971Z,100408.80
2019-01-21T01:09:36.458Z,100405.89
2019-01-21T01:12:10.601Z,100407.61
2019-01-21T01:14:43.554Z,100405.89
2019-01-21T01:17:16.359Z,100395.68
2019-01-21T01:19:49.624Z,100391.38
2019-01-21T01:22:22.284Z,100387.13
2019-01-21T01:24:56.001Z,100390.98
2019-01-21T01:27:29.131Z,100393.13
2019-01-21T01:30:04.462Z,100389.82
2019-01-21T01:32:37.540Z,100389.82
2019-01-21T01:35:11.477Z,100404.64
2019-01-21T01:37:44.474Z,100405.89
2019-01-21T01:40:18.901Z,100402.92
2019-01-21T01:42:52.452Z,100408.88
2019-01-21T01:45:26.264Z,100411.05
2019-01-21T01:48:01.693Z,100408.86
2019-01-21T01:50:34.577Z,100408.02
2019-01-21T01:53:08.129Z,100415.58
2019-01-21T01:55:41.040Z,100415.58
2019-01-21T01:58:14.791Z,100411.72
2019-01-21T02:00:49.283Z,100411.30
2019-01-21T02:03:21.081Z,100419.41
2019-01-21T02:05:58.040Z,100421.13
2019-01-21T02:08:31.274Z,100428.34
2019-01-21T02:11:05.782Z,100430.45
2019-01-21T02:13:38.757Z,100427.13
2019-01-21T02:16:12.055Z,100424.93
2019-01-21T02:18:45.125Z,100425.38
2019-01-21T02:21:18.453Z,100427.48
2019-01-21T02:23:51.830Z,100430.39
2019-01-21T02:26:28.200Z,100435.09
2019-01-21T02:29:08.329Z,100427.84
2019-01-21T02:31:43.893Z,100425.26
2019-01-21T02:34:36.646Z,100426.23
2019-01-21T02:37:20.806Z,100423.63
2019-01-21T02:39:58.374Z,100431.34
2019-01-21T02:42:37.279Z,100431.34
2019-01-21T02:45:29.134Z,100441.97
2019-01-21T02:48:09.776Z,100432.28
2019-01-21T02:50:56.666Z,100436.55
2019-01-21T02:53:37.921Z,100446.84
2019-01-21T02:56:14.901Z,100436.19
2019-01-21T02:59:04.518Z,100431.16
2019-01-21T03:01:54.368Z,100427.47
2019-01-21T03:04:35.270Z,100422.78
2019-01-21T03:07:15.691Z,100424.42
2019-01-21T03:09:56.521Z,100418.02
2019-01-21T03:12:42.721Z,100416.70
2019-01-21T03:15:38.625Z,100429.89
2019-01-21T03:18:19.743Z,100419.66
2019-01-21T03:21:22.863Z,100425.31
2019-01-21T03:24:25.196Z,100425.31
2019-01-21T03:30:27.520Z,100411.94
2019-01-21T03:33:20.494Z,100406.91
2019-01-21T03:35:55.629Z,100407.77
2019-01-21T03:38:43.199Z,100407.41
2019-01-21T03:41:18.493Z,100405.75
2019-01-21T03:44:08.274Z,100400.70
2019-01-21T03:46:49.088Z,100411.73
2019-01-21T03:49:29.915Z,100414.34
2019-01-21T03:52:22.412Z,100416.09
2019-01-21T03:54:55.694Z,100416.06
2019-01-21T03:57:29.299Z,100418.17
2019-01-21T04:00:18.967Z,100414.73
2019-01-21T04:03:02.452Z,100417.31
2019-01-21T04:05:39.856Z,100419.03
2019-01-21T04:08:19.945Z,100426.69
2019-01-21T04:11:29.791Z,100428.41
2019-01-21T04:14:07.516Z,100436.06
2019-01-21T04:16:45.767Z,100437.00
2019-01-21T04:19:47.040Z,100433.55
2019-01-21T04:22:31.031Z,100433.14
2019-01-21T04:25:17.347Z,100441.19
2019-01-21T04:28:01.425Z,100439.96
2019-01-21T04:30:38.110Z,100440.36
2019-01-21T04:33:18.997Z,100441.61
2019-01-21T04:36:22.519Z,100441.61
2019-01-21T04:39:00.740Z,100446.27
2019-01-21T04:41:59.718Z,100444.99
2019-01-21T04:44:43.042Z,100444.13
2019-01-21T04:47:26.222Z,100450.09
2019-01-21T04:50:18.994Z,100440.33
2019-01-21T04:53:11.704Z,100445.86
2019-01-21T04:55:48.942Z,100450.02
2019-01-21T04:58:26.367Z,100451.27
2019-01-21T05:01:04.690Z,100458.95
2019-01-21T05:03:50.016Z,100459.47
2019-01-21T05:06:25.307Z,100463.34
2019-01-21T05:08:59.547Z,100464.20
2019-01-21T05:11:44.262Z,100465.17
2019-01-21T05:14:28.269Z,100467.28
2019-01-21T05:17:15.234Z,100470.27
2019-01-21T05:19:56.132Z,100475.08
2019-01-21T05:22:37.489Z,100482.38
2019-01-21T05:25:26.742Z,100482.40
2019-01-21T05:28:13.693Z,100485.02
2019-01-21T05:31:03.283Z,100489.73
2019-01-21T05:33:47.776Z,100479.98
2019-01-21T05:36:46.613Z,100483.38
2019-01-21T05:39:32.783Z,100490.63
2019-01-21T05:42:23.228Z,100488.08
2019-01-21T05:45:00.781Z,100491.09
2019-01-21T05:47:43.932Z,100484.23
2019-01-21T05:50:18.080Z,100499.98
2019-01-21T05:53:15.800Z,100506.72
2019-01-21T05:55:55.773Z,100501.58
2019-01-21T05:58:35.818Z,100498.96
2019-01-21T06:01:16.996Z,100499.87
2019-01-21T06:03:51.789Z,100508.77
2019-01-21T06:06:35.693Z,100512.60
2019-01-21T06:09:21.332Z,100515.13
2019-01-21T06:12:04.924Z,100521.51
2019-01-21T06:14:42.094Z,100523.22
2019-01-21T06:17:28.423Z,100530.08
2019-01-21T06:20:12.203Z,100529.66
2019-01-21T06:22:49.750Z,100525.81
2019-01-21T06:25:44.035Z,100532.59
2019-01-21T06:28:27.795Z,100530.04
2019-01-21T06:31:18.618Z,100530.89
2019-01-21T06:34:15.376Z,100532.13
2019-01-21T06:36:51.553Z,100529.61
2019-01-21T06:39:35.737Z,100531.82
2019-01-21T06:42:25.544Z,100532.67
2019-01-21T06:45:25.839Z,100529.66
2019-01-21T06:48:16.645Z,100529.64
2019-01-21T06:51:21.579Z,100528.31
2019-01-21T06:54:01.547Z,100537.23
2019-01-21T06:56:36.608Z,100540.64
2019-01-21T06:59:29.555Z,100543.98
2019-01-21T07:02:24.895Z,100538.48
2019-01-21T07:05:17.117Z,100542.77
2019-01-21T07:08:22.651Z,100539.75
2019-01-21T07:10:57.393Z,100538.09
2019-01-21T07:13:47.623Z,100541.48
2019-01-21T07:16:42.455Z,100538.92
2019-01-21T07:19:32.607Z,100545.28
2019-01-21T07:22:13.183Z,100542.20
2019-01-21T07:25:00.449Z,100542.17
2019-01-21T07:27:43.672Z,100548.63
2019-01-21T07:30:36.694Z,100559.25
2019-01-21T07:33:23.500Z,100561.42
2019-01-21T07:36:17.457Z,100567.37
2019-01-21T07:38:57.898Z,100566.52
2019-01-21T07:41:38.157Z,100564.39
2019-01-21T07:44:19.594Z,100575.90
2019-01-21T07:47:06.894Z,100572.86
2019-01-21T07:49:47.932Z,100572.37
2019-01-21T07:52:39.563Z,100572.37
2019-01-21T07:55:37.520Z,100582.53
2019-01-21T07:58:12.412Z,100587.13
2019-01-21T08:01:10.212Z,100581.12
2019-01-21T08:03:59.576Z,100588.72
2019-01-21T08:06:50.556Z,100591.64
2019-01-21T08:09:59.480Z,100597.95
2019-01-21T08:12:49.053Z,100597.05
2019-01-21T08:15:47.978Z,100606.73
2019-01-21T08:18:34.543Z,100609.70
2019-01-21T08:21:15.877Z,100607.59
2019-01-21T08:23:56.836Z,100610.14
2019-01-21T08:26:34.899Z,100611.40
2019-01-21T08:29:25.862Z,100612.72
2019-01-21T08:32:04.294Z,100613.95
2019-01-21T08:34:53.782Z,100613.89
2019-01-21T08:37:46.475Z,100605.69
2019-01-21T08:40:30.770Z,100617.41
2019-01-21T08:43:20.412Z,100611.66
2019-01-21T08:46:03.674Z,100605.44
2019-01-21T08:48:50.889Z,100603.94
2019-01-21T08:51:47.779Z,100610.59
2019-01-21T08:54:34.858Z,100610.59
2019-01-21T08:57:12.910Z,100598.27
2019-01-21T08:59:59.601Z,100598.27
2019-01-21T09:02:55.360Z,100610.02
2019-01-21T09:05:34.153Z,100606.69
2019-01-21T09:08:23.870Z,100606.69
2019-01-21T09:11:02.040Z,100602.98
2019-01-21T09:13:49.248Z,100600.64
2019-01-21T09:16:47.921Z,100602.17
2019-01-21T09:19:37.362Z,100602.17
2019-01-21T09:22:18.277Z,100595.66
2019-01-21T09:24:55.897Z,100599.81
2019-01-21T09:27:33.045Z,100608.98
2019-01-21T09:30:31.185Z,100606.13
2019-01-21T09:33:12.170Z,100615.41
2019-01-21T09:35:47.043Z,100620.56
2019-01-21T09:38:37.020Z,100620.56
2019-01-21T09:41:35.702Z,100622.81
2019-01-21T09:44:13.126Z,100620.77
2019-01-21T09:46:49.371Z,100616.76
2019-01-21T09:49:20.368Z,100617.64
2019-01-21T09:51:55.044Z,100606.69
2019-01-21T09:54:28.395Z,100606.69
2019-01-21T09:57:04.262Z,100604.70
2019-01-21T09:59:37.622Z,100596.35
2019-01-21T10:02:10.422Z,100596.35
2019-01-21T10:04:47.496Z,100590.24
2019-01-21T10:07:33.201Z,100584.82
2019-01-21T10:10:20.084Z,100588.21
2019-01-21T10:13:15.502Z,100583.89
2019-01-21T10:16:02.297Z,100577.42
2019-01-21T10:18:36.560Z,100577.42
2019-01-21T10:21:23.348Z,100576.41
2019-01-21T10:23:58.909Z,100578.97
2019-01-21T10:26:36.859Z,100578.97
2019-01-21T10:29:19.283Z,100578.92
2019-01-21T10:32:06.343Z,100580.70
2019-01-21T10:35:05.280Z,100580.70
2019-01-21T10:37:56.316Z,100574.73
2019-01-21T10:40:37.240Z,100569.77
2019-01-21T10:43:28.414Z,100540.30
2019-01-21T10:46:20.875Z,100563.05
2019-01-21T10:49:12.245Z,100563.48
2019-01-21T10:51:56.256Z,100557.61
2019-01-21T10:54:40.289Z,100556.16
2019-01-21T10:57:20.818Z,100553.77
2019-01-21T11:00:04.833Z,100553.77
2019-01-21T11:02:51.073Z,100548.05
2019-01-21T11:05:47.133Z,100542.76
2019-01-21T11:08:36.747Z,100540.52
2019-01-21T11:11:20.617Z,100540.52
2019-01-21T11:14:17.585Z,100541.35
2019-01-21T11:16:58.449Z,100533.70
2019-01-21T11:19:35.659Z,100534.12
2019-01-21T11:22:10.158Z,100519.30
2019-01-21T11:25:13.846Z,100515.86
2019-01-21T11:27:56.136Z,100505.47
2019-01-21T11:30:30.573Z,100496.44
2019-01-21T11:33:11.491Z,100500.63
2019-01-21T11:36:00.068Z,100496.65
2019-01-21T11:38:58.253Z,100496.09
2019-01-21T11:41:32.674Z,100496.00
2019-01-21T11:44:28.814Z,100498.42
2019-01-21T11:47:29.663Z,100492.12
2019-01-21T11:50:32.972Z,100496.89
2019-01-21T11:53:13.702Z,100489.56
2019-01-21T11:55:49.164Z,100489.56
2019-01-21T11:58:45.312Z,100494.61
2019-01-21T12:01:35.091Z,100495.91
2019-01-21T12:04:12.497Z,100495.91
2019-01-21T12:06:47.518Z,100502.55
2019-01-21T12:09:25.154Z,100497.77
2019-01-21T12:12:05.300Z,100492.34
2019-01-21T12:14:53.080Z,100495.52
2019-01-21T12:17:36.885Z,100497.89
2019-01-21T12:20:23.531Z,100496.77
2019-01-21T12:23:06.124Z,100490.92
2019-01-21T12:25:40.748Z,100489.38
2019-01-21T12:28:45.259Z,100494.41
2019-01-21T12:31:22.603Z,100483.79
2019-01-21T12:34:01.196Z,100493.17
2019-01-21T12:36:41.939Z,100496.05
2019-01-21T12:39:25.649Z,100497.89
2019-01-21T12:42:03.899Z,100489.75
2019-01-21T12:44:44.804Z,100494.74
2019-01-21T12:47:22.209Z,100491.17
2019-01-21T12:50:13.730Z,100496.38
2019-01-21T12:52:48.401Z,100490.36
2019-01-21T12:55:49.834Z,100493.48
2019-01-21T12:58:27.323Z,100496.53
2019-01-21T13:01:07.879Z,100493.18
2019-01-21T13:04:02.056Z,100493.18
2019-01-21T13:06:53.568Z,100491.70
2019-01-21T13:09:34.295Z,100492.75
2019-01-21T13:12:34.868Z,100486.95
2019-01-21T13:15:18.273Z,100484.60
2019-01-21T13:17:59.693Z,100485.05
2019-01-21T13:20:39.964Z,100485.05
2019-01-21T13:23:20.284Z,100481.70
2019-01-21T13:26:00.107Z,100476.79
2019-01-21T13:28:37.710Z,100486.09
2019-01-21T13:31:42.600Z,100486.09
2019-01-21T13:34:30.475Z,100482.77
2019-01-21T13:37:34.100Z,100478.48
2019-01-21T13:40:23.874Z,100475.48
2019-01-21T13:43:07.759Z,100473.33
2019-01-21T13:45:52.947Z,100468.32
2019-01-21T13:48:40.070Z,100462.34
2019-01-21T13:51:29.603Z,100450.92
2019-01-21T13:54:08.102Z,100450.75
2019-01-21T13:56:48.933Z,100450.75
2019-01-21T13:59:40.546Z,100452.86
2019-01-21T14:02:27.024Z,100455.07
2019-01-21T14:05:08.657Z,100455.62
2019-01-21T14:08:00.763Z,100450.66
2019-01-21T14:10:52.076Z,100438.03
2019-01-21T14:13:30.294Z,100441.48
2019-01-21T14:16:39.224Z,100442.35
2019-01-21T14:19:26.353Z,100442.35
2019-01-21T14:22:16.766Z,100450.09
2019-01-21T14:24:55.473Z,100449.72
2019-01-21T14:27:37.137Z,100442.52
2019-01-21T14:30:28.536Z,100447.67
2019-01-21T14:33:20.440Z,100454.52
2019-01-21T14:36:04.563Z,100459.38
2019-01-21T14:38:45.274Z,100459.38
2019-01-21T14:44:45.866Z,100464.52
2019-01-21T14:47:34.874Z,100456.66
2019-01-21T14:50:29.702Z,100461.39
2019-01-21T14:53:23.612Z,100453.81
2019-01-21T14:56:11.049Z,100453.81
2019-01-21T14:58:48.656Z,100460.20
2019-01-21T15:01:42.048Z,100469.15
2019-01-21T15:04:24.108Z,100468.83
2019-01-21T15:07:07.626Z,100474.41
2019-01-21T15:09:52.103Z,100474.41
2019-01-21T15:12:50.285Z,100481.31
2019-01-21T15:15:48.461Z,100483.24
2019-01-21T15:18:32.639Z,100485.64
2019-01-21T15:21:40.436Z,100482.94
2019-01-21T15:24:34.437Z,100483.80
2019-01-21T15:27:17.186Z,100486.73
2019-01-21T15:29:51.742Z,100479.08
2019-01-21T15:32:42.617Z,100483.39
2019-01-21T15:35:24.716Z,100483.39
2019-01-21T15:38:23.025Z,100483.04
2019-01-21T15:41:16.840Z,100466.98
2019-01-21T15:44:03.629Z,100466.98
2019-01-21T15:46:50.886Z,100464.14
2019-01-21T15:49:26.991Z,100453.59
2019-01-21T15:52:03.926Z,100453.59
2019-01-21T15:54:38.645Z,100465.47
2019-01-21T15:57:20.517Z,100464.31
2019-01-21T16:00:20.629Z,100459.17
2019-01-21T16:03:13.778Z,100469.48
2019-01-21T16:06:01.067Z,100469.48
2019-01-21T16:08:36.278Z,100466.09
2019-01-21T16:11:16.566Z,100467.84
2019-01-21T16:14:02.035Z,100462.84
2019-01-21T16:16:44.377Z,100467.12
2019-01-21T16:19:19.476Z,100467.12
2019-01-21T16:22:27.234Z,100474.78
2019-01-21T16:25:25.734Z,100468.45
2019-01-21T16:28:24.932Z,100468.45
2019-01-21T16:31:02.357Z,100470.20
2019-01-21T16:33:57.857Z,100470.20
2019-01-21T16:36:43.896Z,100468.51
2019-01-21T16:39:41.127Z,100468.51
2019-01-21T16:42:17.921Z,100460.06
2019-01-21T16:44:51.240Z,100463.92
2019-01-21T16:47:24.188Z,100463.92
2019-01-21T16:49:57.731Z,100468.20
2019-01-21T16:52:30.434Z,100473.34
2019-01-21T16:55:03.836Z,100470.84
2019-01-21T16:57:36.697Z,100470.84
2019-01-21T17:00:14.763Z,100466.17
2019-01-21T17:02:47.714Z,100462.01
2019-01-21T17:05:22.382Z,100463.75
2019-01-21T17:07:54.652Z,100463.75
2019-01-21T17:10:27.914Z,100463.80
2019-01-21T17:13:00.934Z,100460.89
2019-01-21T17:15:35.640Z,100449.86
2019-01-21T17:18:13.795Z,100448.64
2019-01-21T17:23:41.325Z,100452.58
2019-01-21T17:26:17.639Z,100452.58
2019-01-21T17:28:51.753Z,100455.10
2019-01-21T17:31:25.853Z,100452.99
2019-01-21T17:34:00.117Z,100452.99
2019-01-21T17:36:36.333Z,100446.59
2019-01-21T17:39:09.487Z,100446.17
2019-01-21T17:41:42.520Z,100441.03
2019-01-21T17:44:15.912Z,100449.56
2019-01-21T17:46:48.008Z,100445.75
2019-01-21T17:49:21.032Z,100444.11
2019-01-21T17:51:54.241Z,100444.11
2019-01-21T17:54:26.933Z,100435.59
2019-01-21T17:57:00.158Z,100430.47
2019-01-21T17:59:34.034Z,100427.05
2019-01-21T18:02:10.096Z,100422.86
2019-01-21T18:04:44.730Z,100421.56
2019-01-21T18:07:19.132Z,100422.41
2019-01-21T18:09:53.260Z,100421.61
2019-01-21T18:12:26.469Z,100416.51
2019-01-21T18:15:01.633Z,100418.64
2019-01-21T18:17:42.153Z,100421.63
2019-01-21T18:20:21.748Z,100422.47
2019-01-21T18:22:56.841Z,100423.30
2019-01-21T18:25:30.014Z,100417.34
2019-01-21T18:28:04.278Z,100413.12
2019-01-21T18:30:38.297Z,100415.62
2019-01-21T18:33:14.273Z,100416.92
2019-01-21T18:35:47.468Z,100410.53
2019-01-21T18:38:22.857Z,100413.14
2019-01-21T18:40:55.526Z,100410.28
2019-01-21T18:43:33.305Z,100411.53
2019-01-21T18:46:08.052Z,100406.01
2019-01-21T18:48:43.712Z,100403.51
2019-01-21T18:51:19.196Z,100412.44
2019-01-21T18:53:58.840Z,100412.05
2019-01-21T18:56:33.342Z,100411.61
2019-01-21T18:59:09.844Z,100404.86
2019-01-21T19:01:46.069Z,100401.00
2019-01-21T19:04:31.247Z,100401.91
2019-01-21T19:07:07.863Z,100406.16
2019-01-21T19:09:42.517Z,100400.25
2019-01-21T19:12:17.101Z,100401.94
2019-01-21T19:14:56.272Z,100398.56
2019-01-21T19:17:31.353Z,100401.58
2019-01-21T19:20:11.594Z,100395.20
2019-01-21T19:22:45.592Z,100397.75
2019-01-21T19:25:22.528Z,100394.78
2019-01-21T19:27:59.140Z,100393.50
2019-01-21T19:30:32.597Z,100393.50
2019-01-21T19:33:05.928Z,100391.78
2019-01-21T19:35:39.328Z,100395.98
2019-01-21T19:38:11.996Z,100395.98
2019-01-21T19:40:45.546Z,100390.44
2019-01-21T19:43:24.449Z,100380.72
2019-01-21T19:45:57.530Z,100384.55
2019-01-21T19:48:30.860Z,100387.98
2019-01-21T19:51:04.053Z,100389.31
2019-01-21T19:53:36.997Z,100394.46
2019-01-21T19:56:09.819Z,100398.34
2019-01-21T19:58:42.400Z,100398.34
2019-01-21T20:01:15.010Z,100400.86
2019-01-21T20:03:47.552Z,100398.73
2019-01-21T20:06:20.700Z,100394.88
2019-01-21T20:08:53.456Z,100390.69
2019-01-21T20:11:26.009Z,100394.48
2019-01-21T20:14:09.267Z,100393.19
2019-01-21T20:16:44.857Z,100392.84
2019-01-21T20:19:19.268Z,100398.78
2019-01-21T20:21:58.968Z,100387.80
2019-01-21T20:24:33.475Z,100393.70
2019-01-21T20:27:10.266Z,100386.86
2019-01-21T20:29:48.784Z,100391.12
2019-01-21T20:32:24.802Z,100381.39
2019-01-21T20:35:02.570Z,100378.89
2019-01-21T20:37:36.481Z,100374.18
2019-01-21T20:40:14.971Z,100373.34
2019-01-21T20:42:50.035Z,100373.42
2019-01-21T20:45:28.532Z,100372.13
2019-01-21T20:48:04.449Z,100370.04
2019-01-21T20:50:41.062Z,100372.17
2019-01-21T20:53:17.536Z,100378.12
2019-01-21T20:55:51.041Z,100371.75
2019-01-21T20:58:25.088Z,100372.64
2019-01-21T21:00:59.669Z,100373.47
2019-01-21T21:03:33.516Z,100375.58
2019-01-21T21:06:08.223Z,100367.54
2019-01-21T21:08:43.663Z,100371.36
2019-01-21T21:11:18.603Z,100371.34
2019-01-21T21:14:04.509Z,100370.04
2019-01-21T21:16:41.456Z,100365.77
2019-01-21T21:19:17.497Z,100365.35
2019-01-21T21:21:55.545Z,100364.08
2019-01-21T21:24:31.201Z,100361.52
2019-01-21T21:27:09.731Z,100366.21
2019-01-21T21:29:44.170Z,100363.22
2019-01-21T21:32:20.139Z,100361.50
2019-01-21T21:34:56.866Z,100365.75
2019-01-21T21:37:30.473Z,100365.75
2019-01-21T21:40:07.460Z,100370.84
2019-01-21T21:42:41.332Z,100369.47
2019-01-21T21:45:18.833Z,100363.13
2019-01-21T21:47:54.908Z,100370.45
2019-01-21T21:50:39.755Z,100365.81
2019-01-21T21:53:13.718Z,100377.34
2019-01-21T21:55:48.071Z,100366.70
2019-01-21T21:58:25.055Z,100369.72
2019-01-21T22:01:02.256Z,100369.72
2019-01-21T22:03:33.969Z,100368.91
2019-01-21T22:06:07.301Z,100367.62
2019-01-21T22:08:40.284Z,100370.62
2019-01-21T22:11:14.056Z,100362.53
2019-01-21T22:13:45.992Z,100361.27
2019-01-21T22:16:19.613Z,100362.16
2019-01-21T22:18:52.476Z,100352.82
2019-01-21T22:21:25.818Z,100352.37
2019-01-21T22:23:58.387Z,100349.44
2019-01-21T22:26:32.302Z,100343.04
2019-01-21T22:29:04.193Z,100340.88
2019-01-21T22:31:38.327Z,100332.37
2019-01-21T22:34:12.104Z,100332.81
2019-01-21T22:36:45.431Z,100325.95
2019-01-21T22:39:17.997Z,100329.80
2019-01-21T22:41:51.060Z,100320.88
2019-01-21T22:44:23.852Z,100322.56
2019-01-21T22:46:57.592Z,100316.66
2019-01-21T22:49:30.193Z,100324.28
2019-01-21T22:52:03.628Z,100315.41
2019-01-21T22:54:36.463Z,100312.47
2019-01-21T22:57:09.143Z,100313.30
2019-01-21T22:59:43.029Z,100311.22
2019-01-21T23:02:16.450Z,100315.90
2019-01-21T23:04:49.326Z,100312.49
2019-01-21T23:07:22.486Z,100303.57
2019-01-21T23:09:55.298Z,100303.95
2019-01-21T23:12:28.005Z,100291.20
2019-01-21T23:15:00.988Z,100292.07
2019-01-21T23:17:34.597Z,100289.08
2019-01-21T23:20:08.797Z,100283.12
2019-01-21T23:22:48.816Z,100283.92
2019-01-21T23:25:17.134Z,100285.17
2019-01-21T23:27:50.275Z,100282.62
2019-01-21T23:30:27.573Z,100275.39
2019-01-21T23:32:59.561Z,100274.92
2019-01-21T23:35:32.536Z,100269.83
2019-01-21T23:38:05.784Z,100266.36
2019-01-21T23:40:38.440Z,100267.22
2019-01-21T23:43:11.647Z,100273.18
2019-01-21T23:45:44.347Z,100266.39
2019-01-21T23:48:20.994Z,100264.67
2019-01-21T23:50:53.995Z,100264.23
2019-01-21T23:53:27.734Z,100259.13
2019-01-21T23:56:01.098Z,100257.41
2019-01-21T23:58:34.175Z,100262.95
